createdAt,value
2019-05-13T06:05:05.222Z,39.00
2019-05-13T06:18:27.957Z,40.80
2019-05-13T06:31:51.907Z,43.80
2019-05-13T06:45:13.572Z,44.20
2019-05-13T06:58:36.410Z,45.80
2019-05-13T07:11:59.321Z,41.80
2019-05-13T07:25:22.361Z,41.00
2019-05-13T07:38:45.053Z,39.60
2019-05-13T07:52:07.680Z,39.40
2019-05-13T08:05:31.489Z,39.40
2019-05-13T08:31:54.940Z,38.00
2019-05-13T08:45:02.283Z,37.70
2019-05-13T09:11:14.164Z,40.20
2019-05-13T09:24:26.018Z,41.10
2019-05-13T09:37:28.601Z,42.10
2019-05-13T09:50:36.327Z,42.80
2019-05-13T10:03:53.155Z,43.00
2019-05-13T10:17:07.559Z,43.30
2019-05-13T10:43:32.860Z,30.10
2019-05-13T10:56:39.492Z,28.60
2019-05-13T11:22:52.143Z,31.80
2019-05-13T11:35:58.531Z,29.50
2019-05-13T11:49:05.742Z,31.00
2019-05-13T12:02:13.577Z,30.60
2019-05-13T12:15:27.165Z,31.60
2019-05-13T12:28:27.617Z,30.90
2019-05-13T12:41:53.616Z,30.50
2019-05-13T12:55:14.283Z,30.20
2019-05-13T13:08:42.855Z,31.00
2019-05-13T13:22:03.239Z,30.70
2019-05-13T13:35:22.397Z,30.80
2019-05-13T13:48:45.204Z,29.90
2019-05-13T14:02:07.966Z,29.80
2019-05-13T14:15:33.708Z,33.40
2019-05-13T14:41:55.308Z,29.90
2019-05-13T15:22:08.767Z,33.30
2019-05-13T15:35:32.052Z,32.00
2019-05-13T15:48:54.241Z,31.70
2019-05-13T16:02:16.917Z,31.00
2019-05-13T16:15:41.553Z,36.00
2019-05-13T16:29:02.659Z,38.10
2019-05-13T16:42:25.481Z,38.50
2019-05-13T16:55:48.350Z,33.40
2019-05-13T17:09:11.681Z,33.70
2019-05-13T17:35:35.537Z,33.70
2019-05-13T17:48:43.196Z,33.30
2019-05-13T18:01:51.641Z,33.10
2019-05-13T18:28:02.642Z,34.60
2019-05-13T18:54:15.321Z,35.60
2019-05-13T19:07:23.998Z,36.10
2019-05-13T19:20:48.085Z,36.90
2019-05-13T19:48:06.501Z,37.60
2019-05-13T20:27:32.871Z,38.40
2019-05-13T20:40:48.631Z,38.40
2019-05-13T20:54:11.563Z,38.60
2019-05-13T21:07:34.261Z,39.10
2019-05-13T21:20:57.087Z,39.40
2019-05-13T21:34:21.124Z,39.70
2019-05-13T22:00:44.253Z,40.00
2019-05-13T22:13:51.584Z,39.90
2019-05-13T22:26:58.696Z,39.80
2019-05-13T22:40:05.884Z,39.80
2019-05-13T22:53:13.077Z,39.70
2019-05-13T23:19:22.899Z,39.80
2019-05-13T23:32:31.928Z,39.80
2019-05-13T23:59:36.421Z,39.80
